sensor_id;sensor_type;location;lat;lon;timestamp;P1;durP1;ratioP1;P2;durP2;ratioP2
47147;SDS011;32900;47.498;8.738;2022-07-01T00:02:04;2.50;;;0.70;;
47147;SDS011;32900;47.498;8.738;2022-07-01T00:04:31;1.90;;;0.60;;
47147;SDS011;32900;47.498;8.738;2022-07-01T00:06:58;3.15;;;0.95;;
47147;SDS011;32900;47.498;8.738;2022-07-01T00:09:25;4.18;;;1.00;;
47147;SDS011;32900;47.498;8.738;2022-07-01T00:11:51;2.70;;;0.82;;
47147;SDS011;32900;47.498;8.738;2022-07-01T00:14:18;3.10;;;0.88;;
47147;SDS011;32900;47.498;8.738;2022-07-01T00:16:45;2.50;;;0.80;;
47147;SDS011;32900;47.498;8.738;2022-07-01T00:19:13;1.70;;;0.80;;
47147;SDS011;32900;47.498;8.738;2022-07-01T00:21:40;1.85;;;0.75;;
47147;SDS011;32900;47.498;8.738;2022-07-01T00:24:07;2.10;;;0.75;;
47147;SDS011;32900;47.498;8.738;2022-07-01T00:26:34;4.95;;;1.25;;
47147;SDS011;32900;47.498;8.738;2022-07-01T00:29:00;2.83;;;0.90;;
47147;SDS011;32900;47.498;8.738;2022-07-01T00:31:27;1.27;;;0.70;;
47147;SDS011;32900;47.498;8.738;2022-07-01T00:33:54;3.20;;;0.80;;
47147;SDS011;32900;47.498;8.738;2022-07-01T00:36:21;2.53;;;0.73;;
47147;SDS011;32900;47.498;8.738;2022-07-01T00:38:53;2.53;;;0.77;;
47147;SDS011;32900;47.498;8.738;2022-07-01T00:41:20;2.70;;;0.70;;
47147;SDS011;32900;47.498;8.738;2022-07-01T00:43:48;2.10;;;0.70;;
47147;SDS011;32900;47.498;8.738;2022-07-01T00:46:20;2.92;;;0.60;;
47147;SDS011;32900;47.498;8.738;2022-07-01T00:48:48;1.58;;;0.60;;
47147;SDS011;32900;47.498;8.738;2022-07-01T00:51:17;1.90;;;0.77;;
47147;SDS011;32900;47.498;8.738;2022-07-01T00:53:45;3.38;;;0.80;;
47147;SDS011;32900;47.498;8.738;2022-07-01T00:56:12;2.00;;;0.80;;
47147;SDS011;32900;47.498;8.738;2022-07-01T00:58:39;1.88;;;0.60;;
47147;SDS011;32900;47.498;8.738;2022-07-01T01:01:06;3.25;;;0.70;;
47147;SDS011;32900;47.498;8.738;2022-07-01T01:03:33;1.30;;;0.50;;
47147;SDS011;32900;47.498;8.738;2022-07-01T01:06:00;2.72;;;0.68;;
47147;SDS011;32900;47.498;8.738;2022-07-01T01:08:28;1.60;;;0.55;;
47147;SDS011;32900;47.498;8.738;2022-07-01T01:10:55;1.58;;;0.73;;
47147;SDS011;32900;47.498;8.738;2022-07-01T01:13:22;1.67;;;0.50;;
47147;SDS011;32900;47.498;8.738;2022-07-01T01:15:49;2.17;;;0.73;;
47147;SDS011;32900;47.498;8.738;2022-07-01T01:18:16;1.75;;;0.60;;
47147;SDS011;32900;47.498;8.738;2022-07-01T01:20:43;0.82;;;0.60;;
47147;SDS011;32900;47.498;8.738;2022-07-01T01:23:09;0.90;;;0.60;;
47147;SDS011;32900;47.498;8.738;2022-07-01T01:25:36;2.55;;;0.55;;
47147;SDS011;32900;47.498;8.738;2022-07-01T01:28:03;1.70;;;0.65;;
47147;SDS011;32900;47.498;8.738;2022-07-01T01:30:30;1.52;;;0.50;;
47147;SDS011;32900;47.498;8.738;2022-07-01T01:32:57;2.03;;;0.68;;
47147;SDS011;32900;47.498;8.738;2022-07-01T01:35:24;2.67;;;0.77;;
47147;SDS011;32900;47.498;8.738;2022-07-01T01:37:50;2.38;;;0.65;;
47147;SDS011;32900;47.498;8.738;2022-07-01T01:40:18;1.15;;;0.55;;
47147;SDS011;32900;47.498;8.738;2022-07-01T01:42:45;2.15;;;0.70;;
47147;SDS011;32900;47.498;8.738;2022-07-01T01:45:12;1.63;;;0.68;;
47147;SDS011;32900;47.498;8.738;2022-07-01T01:47:39;2.15;;;0.70;;
47147;SDS011;32900;47.498;8.738;2022-07-01T01:50:07;1.90;;;0.68;;
47147;SDS011;32900;47.498;8.738;2022-07-01T01:52:35;1.42;;;0.63;;
47147;SDS011;32900;47.498;8.738;2022-07-01T01:55:04;2.38;;;0.68;;
47147;SDS011;32900;47.498;8.738;2022-07-01T01:57:31;11.88;;;0.88;;
47147;SDS011;32900;47.498;8.738;2022-07-01T01:59:58;1.33;;;0.70;;
47147;SDS011;32900;47.498;8.738;2022-07-01T02:02:25;1.58;;;0.60;;
47147;SDS011;32900;47.498;8.738;2022-07-01T02:04:52;1.63;;;0.50;;
47147;SDS011;32900;47.498;8.738;2022-07-01T02:07:19;1.27;;;0.55;;
47147;SDS011;32900;47.498;8.738;2022-07-01T02:09:46;0.98;;;0.60;;
47147;SDS011;32900;47.498;8.738;2022-07-01T02:12:12;1.65;;;0.50;;
47147;SDS011;32900;47.498;8.738;2022-07-01T02:14:39;3.03;;;0.70;;
47147;SDS011;32900;47.498;8.738;2022-07-01T02:17:07;1.13;;;0.45;;
47147;SDS011;32900;47.498;8.738;2022-07-01T02:19:33;1.33;;;0.68;;
47147;SDS011;32900;47.498;8.738;2022-07-01T02:59:23;1.63;;;0.60;;
47147;SDS011;32900;47.498;8.738;2022-07-01T03:01:50;1.10;;;0.68;;
47147;SDS011;32900;47.498;8.738;2022-07-01T03:04:16;3.05;;;0.70;;
47147;SDS011;32900;47.498;8.738;2022-07-01T03:06:43;1.90;;;0.60;;
47147;SDS011;32900;47.498;8.738;2022-07-01T03:09:10;2.35;;;0.68;;
47147;SDS011;32900;47.498;8.738;2022-07-01T03:11:36;1.00;;;0.55;;
47147;SDS011;32900;47.498;8.738;2022-07-01T03:14:03;2.65;;;0.50;;
47147;SDS011;32900;47.498;8.738;2022-07-01T03:16:30;1.10;;;0.50;;
47147;SDS011;32900;47.498;8.738;2022-07-01T03:18:57;4.72;;;0.52;;
47147;SDS011;32900;47.498;8.738;2022-07-01T03:21:24;1.88;;;0.50;;
47147;SDS011;32900;47.498;8.738;2022-07-01T03:23:50;1.67;;;0.60;;
47147;SDS011;32900;47.498;8.738;2022-07-01T03:26:17;2.50;;;0.60;;
47147;SDS011;32900;47.498;8.738;2022-07-01T03:28:44;1.02;;;0.52;;
47147;SDS011;32900;47.498;8.738;2022-07-01T03:31:10;1.13;;;0.57;;
47147;SDS011;32900;47.498;8.738;2022-07-01T03:33:37;0.75;;;0.50;;
47147;SDS011;32900;47.498;8.738;2022-07-01T03:36:04;1.88;;;0.50;;
47147;SDS011;32900;47.498;8.738;2022-07-01T03:38:31;0.50;;;0.50;;
47147;SDS011;32900;47.498;8.738;2022-07-01T03:40:58;0.35;;;0.30;;
47147;SDS011;32900;47.498;8.738;2022-07-01T03:43:24;0.65;;;0.45;;
47147;SDS011;32900;47.498;8.738;2022-07-01T03:45:51;0.50;;;0.35;;
47147;SDS011;32900;47.498;8.738;2022-07-01T03:48:18;0.68;;;0.30;;
47147;SDS011;32900;47.498;8.738;2022-07-01T03:50:44;0.93;;;0.60;;
47147;SDS011;32900;47.498;8.738;2022-07-01T03:53:11;1.00;;;0.50;;
47147;SDS011;32900;47.498;8.738;2022-07-01T03:55:57;2.17;;;0.38;;
47147;SDS011;32900;47.498;8.738;2022-07-01T03:58:24;0.47;;;0.45;;
47147;SDS011;32900;47.498;8.738;2022-07-01T04:00:51;1.92;;;0.70;;
47147;SDS011;32900;47.498;8.738;2022-07-01T04:03:17;1.13;;;0.63;;
47147;SDS011;32900;47.498;8.738;2022-07-01T04:05:44;0.82;;;0.38;;
47147;SDS011;32900;47.498;8.738;2022-07-01T04:08:11;1.85;;;0.40;;
47147;SDS011;32900;47.498;8.738;2022-07-01T04:10:38;2.30;;;0.65;;
47147;SDS011;32900;47.498;8.738;2022-07-01T04:13:06;0.57;;;0.30;;
47147;SDS011;32900;47.498;8.738;2022-07-01T04:15:53;2.47;;;0.60;;
47147;SDS011;32900;47.498;8.738;2022-07-01T04:18:20;2.28;;;1.15;;
47147;SDS011;32900;47.498;8.738;2022-07-01T04:20:47;1.48;;;0.38;;
47147;SDS011;32900;47.498;8.738;2022-07-01T04:23:34;0.70;;;0.32;;
47147;SDS011;32900;47.498;8.738;2022-07-01T04:26:01;1.33;;;0.43;;
47147;SDS011;32900;47.498;8.738;2022-07-01T04:28:49;1.10;;;0.40;;
47147;SDS011;32900;47.498;8.738;2022-07-01T04:31:20;1.58;;;0.40;;
47147;SDS011;32900;47.498;8.738;2022-07-01T04:33:47;0.55;;;0.47;;
47147;SDS011;32900;47.498;8.738;2022-07-01T04:36:14;0.77;;;0.40;;
47147;SDS011;32900;47.498;8.738;2022-07-01T04:38:41;1.38;;;0.50;;
47147;SDS011;32900;47.498;8.738;2022-07-01T04:41:08;2.92;;;0.50;;
47147;SDS011;32900;47.498;8.738;2022-07-01T04:43:53;2.05;;;0.50;;
47147;SDS011;32900;47.498;8.738;2022-07-01T04:46:20;1.23;;;0.50;;
47147;SDS011;32900;47.498;8.738;2022-07-01T04:48:47;1.20;;;0.40;;
47147;SDS011;32900;47.498;8.738;2022-07-01T04:51:14;1.23;;;0.60;;
47147;SDS011;32900;47.498;8.738;2022-07-01T04:53:40;1.35;;;0.60;;
47147;SDS011;32900;47.498;8.738;2022-07-01T04:56:07;1.65;;;0.90;;
47147;SDS011;32900;47.498;8.738;2022-07-01T04:58:34;1.67;;;0.43;;
47147;SDS011;32900;47.498;8.738;2022-07-01T05:01:01;1.65;;;0.50;;
47147;SDS011;32900;47.498;8.738;2022-07-01T05:03:27;1.13;;;0.60;;
47147;SDS011;32900;47.498;8.738;2022-07-01T05:05:55;2.05;;;0.75;;
47147;SDS011;32900;47.498;8.738;2022-07-01T05:08:21;2.35;;;0.50;;
47147;SDS011;32900;47.498;8.738;2022-07-01T05:10:48;1.38;;;0.40;;
47147;SDS011;32900;47.498;8.738;2022-07-01T05:13:15;2.33;;;0.60;;
47147;SDS011;32900;47.498;8.738;2022-07-01T05:15:42;1.40;;;0.60;;
47147;SDS011;32900;47.498;8.738;2022-07-01T05:18:08;1.17;;;0.60;;
47147;SDS011;32900;47.498;8.738;2022-07-01T05:20:54;1.38;;;0.50;;
47147;SDS011;32900;47.498;8.738;2022-07-01T05:23:42;1.85;;;0.70;;
47147;SDS011;32900;47.498;8.738;2022-07-01T05:26:09;1.60;;;0.65;;
47147;SDS011;32900;47.498;8.738;2022-07-01T05:31:13;1.27;;;0.55;;
47147;SDS011;32900;47.498;8.738;2022-07-01T05:33:40;1.52;;;0.70;;
47147;SDS011;32900;47.498;8.738;2022-07-01T05:36:07;4.72;;;1.10;;
47147;SDS011;32900;47.498;8.738;2022-07-01T05:38:34;0.90;;;0.45;;
47147;SDS011;32900;47.498;8.738;2022-07-01T05:41:01;3.63;;;0.82;;
47147;SDS011;32900;47.498;8.738;2022-07-01T05:43:27;1.70;;;0.70;;
47147;SDS011;32900;47.498;8.738;2022-07-01T05:45:55;3.80;;;0.75;;
47147;SDS011;32900;47.498;8.738;2022-07-01T05:48:23;2.85;;;0.70;;
47147;SDS011;32900;47.498;8.738;2022-07-01T05:50:50;2.53;;;0.82;;
47147;SDS011;32900;47.498;8.738;2022-07-01T05:53:16;1.75;;;0.70;;
47147;SDS011;32900;47.498;8.738;2022-07-01T05:55:44;1.17;;;0.68;;
47147;SDS011;32900;47.498;8.738;2022-07-01T05:58:11;1.65;;;0.60;;
47147;SDS011;32900;47.498;8.738;2022-07-01T06:00:39;1.27;;;0.60;;
47147;SDS011;32900;47.498;8.738;2022-07-01T06:03:10;2.25;;;0.50;;
47147;SDS011;32900;47.498;8.738;2022-07-01T06:05:38;2.78;;;0.68;;
47147;SDS011;32900;47.498;8.738;2022-07-01T06:08:06;1.40;;;0.52;;
47147;SDS011;32900;47.498;8.738;2022-07-01T06:10:33;2.95;;;0.80;;
47147;SDS011;32900;47.498;8.738;2022-07-01T06:13:01;2.35;;;1.10;;
47147;SDS011;32900;47.498;8.738;2022-07-01T06:15:29;2.13;;;0.85;;
47147;SDS011;32900;47.498;8.738;2022-07-01T06:17:56;3.33;;;0.60;;
47147;SDS011;32900;47.498;8.738;2022-07-01T06:20:23;5.88;;;0.80;;
47147;SDS011;32900;47.498;8.738;2022-07-01T06:22:50;4.05;;;1.13;;
47147;SDS011;32900;47.498;8.738;2022-07-01T06:25:17;1.65;;;0.60;;
47147;SDS011;32900;47.498;8.738;2022-07-01T06:27:44;1.77;;;0.50;;
47147;SDS011;32900;47.498;8.738;2022-07-01T06:30:11;1.65;;;0.65;;
47147;SDS011;32900;47.498;8.738;2022-07-01T06:32:39;1.27;;;0.60;;
47147;SDS011;32900;47.498;8.738;2022-07-01T06:35:06;4.72;;;0.90;;
47147;SDS011;32900;47.498;8.738;2022-07-01T06:37:33;2.03;;;0.80;;
47147;SDS011;32900;47.498;8.738;2022-07-01T06:40:03;4.82;;;1.15;;
47147;SDS011;32900;47.498;8.738;2022-07-01T06:42:31;1.85;;;1.00;;
47147;SDS011;32900;47.498;8.738;2022-07-01T06:44:59;2.90;;;0.95;;
47147;SDS011;32900;47.498;8.738;2022-07-01T06:47:26;1.30;;;0.80;;
47147;SDS011;32900;47.498;8.738;2022-07-01T06:49:53;1.45;;;0.65;;
47147;SDS011;32900;47.498;8.738;2022-07-01T06:52:21;4.47;;;0.90;;
47147;SDS011;32900;47.498;8.738;2022-07-01T06:54:48;2.67;;;1.40;;
47147;SDS011;32900;47.498;8.738;2022-07-01T06:57:15;2.13;;;0.90;;
47147;SDS011;32900;47.498;8.738;2022-07-01T06:59:42;1.88;;;0.90;;
47147;SDS011;32900;47.498;8.738;2022-07-01T07:02:08;3.20;;;1.00;;
47147;SDS011;32900;47.498;8.738;2022-07-01T07:04:35;3.05;;;1.10;;
47147;SDS011;32900;47.498;8.738;2022-07-01T07:07:22;1.83;;;0.90;;
47147;SDS011;32900;47.498;8.738;2022-07-01T07:09:49;1.88;;;1.00;;
47147;SDS011;32900;47.498;8.738;2022-07-01T07:12:16;1.98;;;1.13;;
47147;SDS011;32900;47.498;8.738;2022-07-01T07:14:42;1.75;;;1.00;;
47147;SDS011;32900;47.498;8.738;2022-07-01T07:17:09;1.90;;;1.20;;
47147;SDS011;32900;47.498;8.738;2022-07-01T07:19:36;1.60;;;1.00;;
47147;SDS011;32900;47.498;8.738;2022-07-01T07:22:03;2.33;;;1.15;;
47147;SDS011;32900;47.498;8.738;2022-07-01T07:24:30;2.33;;;1.13;;
47147;SDS011;32900;47.498;8.738;2022-07-01T07:26:56;1.50;;;0.80;;
47147;SDS011;32900;47.498;8.738;2022-07-01T07:29:23;1.42;;;0.73;;
47147;SDS011;32900;47.498;8.738;2022-07-01T07:31:50;2.05;;;1.05;;
47147;SDS011;32900;47.498;8.738;2022-07-01T07:34:16;1.33;;;0.77;;
47147;SDS011;32900;47.498;8.738;2022-07-01T07:36:43;2.25;;;1.00;;
47147;SDS011;32900;47.498;8.738;2022-07-01T07:39:10;2.67;;;1.10;;
47147;SDS011;32900;47.498;8.738;2022-07-01T07:41:37;2.08;;;1.20;;
47147;SDS011;32900;47.498;8.738;2022-07-01T07:44:05;1.77;;;0.93;;
47147;SDS011;32900;47.498;8.738;2022-07-01T07:46:32;2.72;;;0.77;;
47147;SDS011;32900;47.498;8.738;2022-07-01T07:48:59;1.25;;;0.88;;
47147;SDS011;32900;47.498;8.738;2022-07-01T07:51:25;2.80;;;1.35;;
47147;SDS011;32900;47.498;8.738;2022-07-01T07:53:53;7.95;;;1.20;;
47147;SDS011;32900;47.498;8.738;2022-07-01T07:56:19;2.00;;;1.00;;
47147;SDS011;32900;47.498;8.738;2022-07-01T07:58:47;2.28;;;1.10;;
47147;SDS011;32900;47.498;8.738;2022-07-01T08:01:14;1.65;;;1.00;;
47147;SDS011;32900;47.498;8.738;2022-07-01T08:03:40;2.65;;;1.00;;
47147;SDS011;32900;47.498;8.738;2022-07-01T08:06:07;2.70;;;1.20;;
47147;SDS011;32900;47.498;8.738;2022-07-01T08:08:34;2.70;;;1.48;;
47147;SDS011;32900;47.498;8.738;2022-07-01T08:11:01;2.63;;;1.65;;
47147;SDS011;32900;47.498;8.738;2022-07-01T08:13:28;3.33;;;1.55;;
47147;SDS011;32900;47.498;8.738;2022-07-01T08:15:55;2.33;;;1.05;;
47147;SDS011;32900;47.498;8.738;2022-07-01T08:18:22;2.08;;;1.25;;
47147;SDS011;32900;47.498;8.738;2022-07-01T08:20:49;3.05;;;1.58;;
47147;SDS011;32900;47.498;8.738;2022-07-01T08:23:19;2.70;;;1.20;;
47147;SDS011;32900;47.498;8.738;2022-07-01T08:25:48;4.20;;;0.98;;
47147;SDS011;32900;47.498;8.738;2022-07-01T08:28:16;1.83;;;0.90;;
47147;SDS011;32900;47.498;8.738;2022-07-01T08:30:43;4.95;;;1.10;;
47147;SDS011;32900;47.498;8.738;2022-07-01T08:33:11;2.10;;;0.90;;
47147;SDS011;32900;47.498;8.738;2022-07-01T08:35:37;1.42;;;0.80;;
47147;SDS011;32900;47.498;8.738;2022-07-01T08:38:05;2.00;;;0.77;;
47147;SDS011;32900;47.498;8.738;2022-07-01T08:40:32;3.20;;;1.08;;
47147;SDS011;32900;47.498;8.738;2022-07-01T08:42:59;3.95;;;1.00;;
47147;SDS011;32900;47.498;8.738;2022-07-01T08:45:29;2.28;;;0.88;;
47147;SDS011;32900;47.498;8.738;2022-07-01T08:47:58;2.50;;;0.60;;
47147;SDS011;32900;47.498;8.738;2022-07-01T08:50:38;1.20;;;0.60;;
47147;SDS011;32900;47.498;8.738;2022-07-01T08:53:08;3.08;;;0.90;;
47147;SDS011;32900;47.498;8.738;2022-07-01T08:55:36;2.80;;;0.90;;
47147;SDS011;32900;47.498;8.738;2022-07-01T08:58:23;2.00;;;0.70;;
47147;SDS011;32900;47.498;8.738;2022-07-01T09:00:52;2.22;;;0.80;;
47147;SDS011;32900;47.498;8.738;2022-07-01T09:03:25;3.47;;;0.88;;
47147;SDS011;32900;47.498;8.738;2022-07-01T09:05:55;1.02;;;0.60;;
47147;SDS011;32900;47.498;8.738;2022-07-01T09:08:24;2.65;;;1.00;;
47147;SDS011;32900;47.498;8.738;2022-07-01T09:10:54;2.67;;;0.80;;
47147;SDS011;32900;47.498;8.738;2022-07-01T09:13:20;2.25;;;1.00;;
47147;SDS011;32900;47.498;8.738;2022-07-01T09:15:47;2.05;;;1.00;;
47147;SDS011;32900;47.498;8.738;2022-07-01T09:18:15;2.03;;;1.05;;
47147;SDS011;32900;47.498;8.738;2022-07-01T09:20:45;6.28;;;1.73;;
47147;SDS011;32900;47.498;8.738;2022-07-01T09:23:18;1.52;;;0.93;;
47147;SDS011;32900;47.498;8.738;2022-07-01T09:25:48;3.47;;;0.63;;
47147;SDS011;32900;47.498;8.738;2022-07-01T09:28:30;1.45;;;0.40;;
47147;SDS011;32900;47.498;8.738;2022-07-01T09:30:57;1.23;;;0.50;;
47147;SDS011;32900;47.498;8.738;2022-07-01T09:33:28;1.65;;;0.60;;
47147;SDS011;32900;47.498;8.738;2022-07-01T09:35:56;2.38;;;0.55;;
47147;SDS011;32900;47.498;8.738;2022-07-01T09:38:26;1.65;;;0.50;;
47147;SDS011;32900;47.498;8.738;2022-07-01T09:43:25;2.33;;;0.40;;
47147;SDS011;32900;47.498;8.738;2022-07-01T09:46:10;1.10;;;0.50;;
47147;SDS011;32900;47.498;8.738;2022-07-01T09:48:44;1.80;;;0.60;;
47147;SDS011;32900;47.498;8.738;2022-07-01T09:51:12;4.28;;;1.00;;
47147;SDS011;32900;47.498;8.738;2022-07-01T10:05:41;2.42;;;0.90;;
47147;SDS011;32900;47.498;8.738;2022-07-01T10:13:51;0.80;;;0.50;;
47147;SDS011;32900;47.498;8.738;2022-07-01T10:16:19;0.82;;;0.40;;
47147;SDS011;32900;47.498;8.738;2022-07-01T10:18:47;0.75;;;0.45;;
47147;SDS011;32900;47.498;8.738;2022-07-01T10:21:27;2.42;;;0.80;;
47147;SDS011;32900;47.498;8.738;2022-07-01T10:24:13;1.20;;;0.60;;
47147;SDS011;32900;47.498;8.738;2022-07-01T10:26:44;0.70;;;0.43;;
47147;SDS011;32900;47.498;8.738;2022-07-01T10:32:48;0.63;;;0.40;;
47147;SDS011;32900;47.498;8.738;2022-07-01T10:35:09;1.40;;;0.43;;
47147;SDS011;32900;47.498;8.738;2022-07-01T10:37:35;1.15;;;0.60;;
47147;SDS011;32900;47.498;8.738;2022-07-01T10:40:39;2.13;;;0.60;;
47147;SDS011;32900;47.498;8.738;2022-07-01T10:43:07;1.25;;;0.45;;
47147;SDS011;32900;47.498;8.738;2022-07-01T10:45:45;1.25;;;0.32;;
47147;SDS011;32900;47.498;8.738;2022-07-01T10:48:20;0.60;;;0.40;;
47147;SDS011;32900;47.498;8.738;2022-07-01T10:50:48;0.65;;;0.35;;
47147;SDS011;32900;47.498;8.738;2022-07-01T10:53:17;0.60;;;0.32;;
47147;SDS011;32900;47.498;8.738;2022-07-01T10:55:45;6.72;;;0.57;;
47147;SDS011;32900;47.498;8.738;2022-07-01T10:58:16;1.60;;;0.60;;
47147;SDS011;32900;47.498;8.738;2022-07-01T11:00:46;1.38;;;0.60;;
47147;SDS011;32900;47.498;8.738;2022-07-01T11:03:17;1.02;;;0.52;;
47147;SDS011;32900;47.498;8.738;2022-07-01T11:05:50;1.42;;;0.55;;
47147;SDS011;32900;47.498;8.738;2022-07-01T11:08:19;0.80;;;0.60;;
47147;SDS011;32900;47.498;8.738;2022-07-01T11:10:54;1.10;;;0.60;;
47147;SDS011;32900;47.498;8.738;2022-07-01T11:13:24;0.50;;;0.50;;
47147;SDS011;32900;47.498;8.738;2022-07-01T11:15:52;0.73;;;0.50;;
47147;SDS011;32900;47.498;8.738;2022-07-01T11:18:20;1.23;;;0.70;;
47147;SDS011;32900;47.498;8.738;2022-07-01T11:20:47;1.73;;;0.70;;
47147;SDS011;32900;47.498;8.738;2022-07-01T11:23:14;1.33;;;0.63;;
47147;SDS011;32900;47.498;8.738;2022-07-01T11:25:42;0.98;;;0.50;;
47147;SDS011;32900;47.498;8.738;2022-07-01T11:28:10;1.25;;;0.57;;
47147;SDS011;32900;47.498;8.738;2022-07-01T11:30:37;3.25;;;0.50;;
47147;SDS011;32900;47.498;8.738;2022-07-01T11:33:05;1.15;;;0.40;;
47147;SDS011;32900;47.498;8.738;2022-07-01T11:35:36;0.70;;;0.32;;
47147;SDS011;32900;47.498;8.738;2022-07-01T11:38:23;1.42;;;0.68;;
47147;SDS011;32900;47.498;8.738;2022-07-01T11:41:20;0.70;;;0.50;;
47147;SDS011;32900;47.498;8.738;2022-07-01T11:43:50;1.33;;;0.50;;
47147;SDS011;32900;47.498;8.738;2022-07-01T11:46:18;1.10;;;0.40;;
47147;SDS011;32900;47.498;8.738;2022-07-01T11:48:48;0.30;;;0.30;;
47147;SDS011;32900;47.498;8.738;2022-07-01T11:51:18;0.60;;;0.40;;
47147;SDS011;32900;47.498;8.738;2022-07-01T11:53:51;0.50;;;0.50;;
47147;SDS011;32900;47.498;8.738;2022-07-01T11:56:30;0.52;;;0.32;;
47147;SDS011;32900;47.498;8.738;2022-07-01T11:59:00;0.38;;;0.30;;
47147;SDS011;32900;47.498;8.738;2022-07-01T12:01:31;0.55;;;0.30;;
47147;SDS011;32900;47.498;8.738;2022-07-01T12:04:00;1.48;;;0.40;;
47147;SDS011;32900;47.498;8.738;2022-07-01T12:06:29;0.50;;;0.40;;
47147;SDS011;32900;47.498;8.738;2022-07-01T12:08:57;0.80;;;0.52;;
47147;SDS011;32900;47.498;8.738;2022-07-01T12:11:25;0.90;;;0.63;;
47147;SDS011;32900;47.498;8.738;2022-07-01T12:13:53;1.23;;;0.57;;
47147;SDS011;32900;47.498;8.738;2022-07-01T12:16:22;1.67;;;0.40;;
47147;SDS011;32900;47.498;8.738;2022-07-01T12:18:50;1.13;;;0.60;;
47147;SDS011;32900;47.498;8.738;2022-07-01T12:21:17;1.02;;;0.55;;
47147;SDS011;32900;47.498;8.738;2022-07-01T12:26:47;1.60;;;0.60;;
47147;SDS011;32900;47.498;8.738;2022-07-01T12:29:21;1.55;;;0.82;;
47147;SDS011;32900;47.498;8.738;2022-07-01T12:37:28;1.30;;;0.60;;
47147;SDS011;32900;47.498;8.738;2022-07-01T12:40:02;0.50;;;0.50;;
47147;SDS011;32900;47.498;8.738;2022-07-01T12:42:37;1.13;;;0.50;;
47147;SDS011;32900;47.498;8.738;2022-07-01T12:45:13;0.70;;;0.30;;
47147;SDS011;32900;47.498;8.738;2022-07-01T12:47:46;1.15;;;0.50;;
47147;SDS011;32900;47.498;8.738;2022-07-01T12:53:01;0.70;;;0.50;;
47147;SDS011;32900;47.498;8.738;2022-07-01T12:55:31;1.13;;;0.20;;
47147;SDS011;32900;47.498;8.738;2022-07-01T12:58:01;0.52;;;0.35;;
47147;SDS011;32900;47.498;8.738;2022-07-01T13:00:30;0.20;;;0.20;;
47147;SDS011;32900;47.498;8.738;2022-07-01T13:02:58;0.52;;;0.30;;
47147;SDS011;32900;47.498;8.738;2022-07-01T13:05:26;1.10;;;0.32;;
47147;SDS011;32900;47.498;8.738;2022-07-01T13:07:54;1.60;;;0.47;;
47147;SDS011;32900;47.498;8.738;2022-07-01T13:10:21;0.65;;;0.40;;
47147;SDS011;32900;47.498;8.738;2022-07-01T13:12:48;0.30;;;0.30;;
47147;SDS011;32900;47.498;8.738;2022-07-01T13:15:16;0.55;;;0.32;;
47147;SDS011;32900;47.498;8.738;2022-07-01T13:17:44;1.20;;;0.30;;
47147;SDS011;32900;47.498;8.738;2022-07-01T13:20:11;0.47;;;0.32;;
47147;SDS011;32900;47.498;8.738;2022-07-01T13:22:39;2.22;;;0.40;;
47147;SDS011;32900;47.498;8.738;2022-07-01T13:25:07;1.85;;;0.30;;
47147;SDS011;32900;47.498;8.738;2022-07-01T13:27:34;0.30;;;0.30;;
47147;SDS011;32900;47.498;8.738;2022-07-01T13:30:02;1.85;;;0.38;;
47147;SDS011;32900;47.498;8.738;2022-07-01T13:32:30;1.65;;;0.50;;
47147;SDS011;32900;47.498;8.738;2022-07-01T13:34:57;1.15;;;0.45;;
47147;SDS011;32900;47.498;8.738;2022-07-01T13:37:23;2.05;;;0.57;;
47147;SDS011;32900;47.498;8.738;2022-07-01T13:39:50;2.95;;;0.68;;
47147;SDS011;32900;47.498;8.738;2022-07-01T13:42:17;2.72;;;0.68;;
47147;SDS011;32900;47.498;8.738;2022-07-01T13:44:44;3.30;;;0.60;;
47147;SDS011;32900;47.498;8.738;2022-07-01T13:47:11;0.75;;;0.40;;
47147;SDS011;32900;47.498;8.738;2022-07-01T13:49:40;1.13;;;0.70;;
47147;SDS011;32900;47.498;8.738;2022-07-01T13:52:11;4.13;;;0.50;;
47147;SDS011;32900;47.498;8.738;2022-07-01T13:54:38;4.90;;;0.68;;
47147;SDS011;32900;47.498;8.738;2022-07-01T13:57:06;1.73;;;0.50;;
47147;SDS011;32900;47.498;8.738;2022-07-01T13:59:33;1.33;;;0.70;;
47147;SDS011;32900;47.498;8.738;2022-07-01T14:02:06;1.42;;;0.77;;
47147;SDS011;32900;47.498;8.738;2022-07-01T14:04:35;1.45;;;0.50;;
47147;SDS011;32900;47.498;8.738;2022-07-01T14:07:02;1.25;;;0.50;;
47147;SDS011;32900;47.498;8.738;2022-07-01T14:09:29;0.75;;;0.50;;
47147;SDS011;32900;47.498;8.738;2022-07-01T14:11:56;1.33;;;0.50;;
47147;SDS011;32900;47.498;8.738;2022-07-01T14:14:23;1.08;;;0.60;;
47147;SDS011;32900;47.498;8.738;2022-07-01T14:16:50;0.98;;;0.43;;
47147;SDS011;32900;47.498;8.738;2022-07-01T14:19:17;0.70;;;0.50;;
47147;SDS011;32900;47.498;8.738;2022-07-01T14:21:44;1.05;;;0.60;;
47147;SDS011;32900;47.498;8.738;2022-07-01T14:24:10;1.13;;;0.68;;
47147;SDS011;32900;47.498;8.738;2022-07-01T14:26:37;1.92;;;0.70;;
47147;SDS011;32900;47.498;8.738;2022-07-01T14:29:04;1.42;;;0.60;;
47147;SDS011;32900;47.498;8.738;2022-07-01T14:31:31;1.38;;;0.50;;
47147;SDS011;32900;47.498;8.738;2022-07-01T14:33:58;1.65;;;0.70;;
47147;SDS011;32900;47.498;8.738;2022-07-01T14:36:24;2.00;;;0.80;;
47147;SDS011;32900;47.498;8.738;2022-07-01T14:38:51;0.73;;;0.60;;
47147;SDS011;32900;47.498;8.738;2022-07-01T14:41:18;0.95;;;0.60;;
47147;SDS011;32900;47.498;8.738;2022-07-01T14:43:45;1.05;;;0.45;;
47147;SDS011;32900;47.498;8.738;2022-07-01T14:46:12;1.83;;;0.80;;
47147;SDS011;32900;47.498;8.738;2022-07-01T14:48:40;0.98;;;0.75;;
47147;SDS011;32900;47.498;8.738;2022-07-01T14:51:07;1.10;;;0.50;;
47147;SDS011;32900;47.498;8.738;2022-07-01T14:53:35;0.70;;;0.50;;
47147;SDS011;32900;47.498;8.738;2022-07-01T14:56:02;1.38;;;0.80;;
47147;SDS011;32900;47.498;8.738;2022-07-01T14:58:29;1.85;;;0.57;;
47147;SDS011;32900;47.498;8.738;2022-07-01T15:00:55;3.60;;;0.70;;
47147;SDS011;32900;47.498;8.738;2022-07-01T15:03:22;2.08;;;0.60;;
47147;SDS011;32900;47.498;8.738;2022-07-01T15:05:49;0.70;;;0.50;;
47147;SDS011;32900;47.498;8.738;2022-07-01T15:08:20;1.00;;;0.50;;
47147;SDS011;32900;47.498;8.738;2022-07-01T15:10:47;1.85;;;0.63;;
47147;SDS011;32900;47.498;8.738;2022-07-01T15:13:15;0.90;;;0.60;;
47147;SDS011;32900;47.498;8.738;2022-07-01T15:15:42;0.88;;;0.50;;
47147;SDS011;32900;47.498;8.738;2022-07-01T15:18:09;0.75;;;0.40;;
47147;SDS011;32900;47.498;8.738;2022-07-01T15:20:36;1.30;;;0.60;;
47147;SDS011;32900;47.498;8.738;2022-07-01T15:23:03;0.73;;;0.40;;
47147;SDS011;32900;47.498;8.738;2022-07-01T15:25:30;2.47;;;0.70;;
47147;SDS011;32900;47.498;8.738;2022-07-01T15:27:56;4.65;;;0.80;;
47147;SDS011;32900;47.498;8.738;2022-07-01T15:30:24;1.05;;;0.70;;
47147;SDS011;32900;47.498;8.738;2022-07-01T15:32:51;1.63;;;0.55;;
47147;SDS011;32900;47.498;8.738;2022-07-01T15:35:17;1.60;;;0.63;;
47147;SDS011;32900;47.498;8.738;2022-07-01T15:37:44;1.48;;;0.75;;
47147;SDS011;32900;47.498;8.738;2022-07-01T15:40:11;1.13;;;0.73;;
47147;SDS011;32900;47.498;8.738;2022-07-01T15:42:38;1.20;;;0.73;;
47147;SDS011;32900;47.498;8.738;2022-07-01T15:45:05;1.30;;;0.60;;
47147;SDS011;32900;47.498;8.738;2022-07-01T15:47:32;1.60;;;0.57;;
47147;SDS011;32900;47.498;8.738;2022-07-01T15:50:18;5.35;;;0.60;;
47147;SDS011;32900;47.498;8.738;2022-07-01T15:52:46;1.80;;;0.50;;
47147;SDS011;32900;47.498;8.738;2022-07-01T15:55:14;0.98;;;0.50;;
47147;SDS011;32900;47.498;8.738;2022-07-01T15:57:43;0.68;;;0.40;;
47147;SDS011;32900;47.498;8.738;2022-07-01T16:00:16;1.23;;;0.52;;
47147;SDS011;32900;47.498;8.738;2022-07-01T16:02:45;1.30;;;0.50;;
47147;SDS011;32900;47.498;8.738;2022-07-01T16:05:13;1.48;;;0.60;;
47147;SDS011;32900;47.498;8.738;2022-07-01T16:07:40;1.23;;;0.50;;
47147;SDS011;32900;47.498;8.738;2022-07-01T16:10:10;1.73;;;0.50;;
47147;SDS011;32900;47.498;8.738;2022-07-01T16:12:40;1.70;;;0.80;;